createdAt,value
2023-03-04T00:02:28.902Z,17.20
2023-03-04T00:05:58.306Z,17.90
2023-03-04T00:09:25.329Z,17.00
2023-03-04T00:12:53.405Z,16.40
2023-03-04T00:16:35.461Z,15.70
2023-03-04T00:20:05.438Z,14.40
2023-03-04T00:23:34.033Z,13.90
2023-03-04T00:27:01.677Z,14.00
2023-03-04T00:30:30.105Z,14.30
2023-03-04T00:34:00.493Z,14.30
2023-03-04T00:37:30.926Z,14.30
2023-03-04T00:40:58.231Z,14.10
2023-03-04T00:44:26.632Z,15.90
2023-03-04T00:47:55.702Z,15.80
2023-03-04T00:51:24.544Z,15.60
2023-03-04T00:54:51.155Z,16.30
2023-03-04T00:58:19.199Z,16.80
2023-03-04T01:01:46.161Z,16.20
2023-03-04T01:05:16.518Z,16.90
2023-03-04T01:08:43.508Z,17.10
2023-03-04T01:12:10.850Z,16.90
2023-03-04T01:15:39.257Z,16.20
2023-03-04T01:19:06.657Z,15.50
2023-03-04T01:22:33.716Z,16.20
2023-03-04T01:26:07.247Z,16.90
2023-03-04T01:29:36.875Z,17.10
2023-03-04T01:33:03.986Z,16.50
2023-03-04T01:36:35.030Z,16.60
2023-03-04T01:40:03.823Z,17.40
2023-03-04T01:43:38.044Z,17.80
2023-03-04T01:47:07.673Z,17.20
2023-03-04T01:50:38.667Z,18.20
2023-03-04T01:54:22.675Z,18.90
2023-03-04T01:57:56.334Z,18.80
2023-03-04T02:01:24.195Z,17.50
2023-03-04T02:04:51.483Z,18.60
2023-03-04T02:08:21.693Z,17.80
2023-03-04T02:11:50.668Z,18.20
2023-03-04T02:15:22.508Z,17.80
2023-03-04T02:18:52.517Z,16.60
2023-03-04T02:22:20.034Z,15.70
2023-03-04T02:25:51.866Z,15.10
2023-03-04T02:29:20.316Z,15.10
2023-03-04T02:32:48.441Z,15.00
2023-03-04T02:36:15.690Z,14.10
2023-03-04T02:39:46.698Z,14.40
2023-03-04T02:43:15.461Z,14.80
2023-03-04T02:46:42.429Z,16.00
2023-03-04T02:50:11.346Z,14.30
2023-03-04T02:53:38.438Z,15.30
2023-03-04T02:57:07.237Z,14.70
2023-03-04T03:00:40.969Z,14.00
2023-03-04T03:04:08.525Z,12.90
2023-03-04T03:07:36.138Z,13.70
2023-03-04T03:11:03.183Z,13.90
2023-03-04T03:14:31.318Z,14.40
2023-03-04T03:17:58.664Z,13.10
2023-03-04T03:21:25.940Z,13.70
2023-03-04T03:24:53.002Z,13.00
2023-03-04T03:28:20.131Z,12.80
2023-03-04T03:31:47.390Z,11.70
2023-03-04T03:35:14.563Z,10.80
2023-03-04T03:38:41.552Z,11.00
2023-03-04T03:42:09.118Z,10.80
2023-03-04T03:45:41.375Z,10.30
2023-03-04T03:49:08.293Z,10.80
2023-03-04T03:52:35.106Z,10.00
2023-03-04T03:56:01.489Z,10.40
2023-03-04T03:59:28.494Z,10.10
2023-03-04T04:02:59.166Z,11.20
2023-03-04T04:06:26.371Z,9.50
2023-03-04T04:09:53.314Z,10.10
2023-03-04T04:13:20.171Z,10.80
2023-03-04T04:16:48.109Z,10.10
2023-03-04T04:20:16.282Z,10.40
2023-03-04T04:23:43.441Z,10.40
2023-03-04T04:27:10.704Z,10.00
2023-03-04T04:30:39.097Z,10.20
2023-03-04T04:34:08.053Z,9.10
2023-03-04T04:37:35.720Z,8.70
2023-03-04T04:41:03.276Z,7.70
2023-03-04T04:44:32.509Z,8.10
2023-03-04T04:47:59.413Z,7.40
2023-03-04T04:51:26.162Z,8.40
2023-03-04T04:54:52.771Z,7.30
2023-03-04T04:58:19.457Z,7.30
2023-03-04T05:01:46.127Z,8.10
2023-03-04T05:05:14.178Z,7.90
2023-03-04T05:08:43.290Z,8.50
2023-03-04T05:12:09.956Z,8.20
2023-03-04T05:15:39.755Z,7.70
2023-03-04T05:19:12.668Z,7.80
2023-03-04T05:22:39.650Z,8.20
2023-03-04T05:26:07.990Z,8.20
2023-03-04T05:29:35.309Z,8.70
2023-03-04T05:33:02.709Z,7.30
2023-03-04T05:36:29.442Z,8.10
2023-03-04T05:39:56.221Z,7.90
2023-03-04T05:43:24.536Z,7.60
2023-03-04T05:46:51.306Z,7.00
2023-03-04T05:50:20.192Z,7.80
2023-03-04T05:53:47.522Z,8.00
2023-03-04T05:57:14.137Z,7.90
2023-03-04T06:00:41.180Z,7.60
2023-03-04T06:04:08.121Z,7.20
2023-03-04T06:07:34.765Z,7.70
2023-03-04T06:11:01.502Z,7.60
2023-03-04T06:14:28.422Z,9.20
2023-03-04T06:17:55.554Z,8.60
2023-03-04T06:21:22.259Z,8.20
2023-03-04T06:24:54.277Z,9.70
2023-03-04T06:28:21.555Z,8.00
2023-03-04T06:31:49.036Z,7.80
2023-03-04T06:35:17.303Z,8.20
2023-03-04T06:38:44.230Z,8.20
2023-03-04T06:42:10.999Z,7.80
2023-03-04T06:45:40.244Z,8.20
2023-03-04T06:49:08.486Z,7.60
2023-03-04T06:52:35.564Z,8.10
2023-03-04T06:56:03.038Z,7.10
2023-03-04T06:59:29.758Z,8.10
2023-03-04T07:02:56.369Z,6.80
2023-03-04T07:06:27.502Z,8.10
2023-03-04T07:09:54.341Z,7.40
2023-03-04T07:13:21.248Z,7.10
2023-03-04T07:16:49.084Z,6.90
2023-03-04T07:20:17.304Z,8.30
2023-03-04T07:23:45.988Z,8.30
2023-03-04T07:27:12.996Z,7.40
2023-03-04T07:30:39.840Z,7.60
2023-03-04T07:34:09.019Z,7.40
2023-03-04T07:37:36.006Z,7.40
2023-03-04T07:41:02.979Z,7.10
2023-03-04T07:44:29.750Z,7.70
2023-03-04T07:47:56.924Z,6.90
2023-03-04T07:51:28.126Z,7.90
2023-03-04T07:54:54.919Z,7.80
2023-03-04T07:58:22.013Z,6.90
2023-03-04T08:01:49.511Z,8.60
2023-03-04T08:05:16.969Z,6.50
2023-03-04T08:08:44.323Z,7.20
2023-03-04T08:12:11.346Z,7.20
2023-03-04T08:15:42.506Z,7.00
2023-03-04T08:19:10.033Z,7.20
2023-03-04T08:22:36.418Z,6.90
2023-03-04T08:26:07.834Z,5.60
2023-03-04T08:29:35.254Z,7.30
2023-03-04T08:33:02.809Z,7.00
2023-03-04T08:36:30.389Z,6.80
2023-03-04T08:39:57.892Z,6.70
2023-03-04T08:43:25.802Z,8.70
2023-03-04T08:46:52.889Z,8.30
2023-03-04T08:50:22.230Z,7.30
2023-03-04T08:53:49.742Z,7.10
2023-03-04T08:57:17.591Z,6.90
2023-03-04T09:00:50.271Z,7.20
2023-03-04T09:04:17.517Z,6.50
2023-03-04T09:07:44.582Z,6.10
2023-03-04T09:11:13.425Z,5.70
2023-03-04T09:14:40.251Z,3.70
2023-03-04T09:18:08.506Z,5.60
2023-03-04T09:21:35.636Z,7.10
2023-03-04T09:25:03.052Z,6.50
2023-03-04T09:28:30.699Z,6.70
2023-03-04T09:31:58.151Z,5.80
2023-03-04T09:35:25.095Z,4.90
2023-03-04T09:38:52.271Z,5.40
2023-03-04T09:42:27.472Z,5.60
2023-03-04T09:45:58.505Z,5.10
2023-03-04T09:49:26.954Z,5.40
2023-03-04T09:53:08.043Z,7.00
2023-03-04T09:56:38.661Z,5.60
2023-03-04T10:00:20.240Z,5.40
2023-03-04T10:03:53.802Z,4.90
2023-03-04T10:07:25.426Z,6.60
2023-03-04T10:10:53.617Z,4.90
2023-03-04T10:14:35.556Z,4.60
2023-03-04T10:18:09.678Z,3.90
2023-03-04T10:21:41.824Z,4.80
2023-03-04T10:25:24.747Z,4.10
2023-03-04T10:28:52.534Z,4.60
2023-03-04T10:32:21.253Z,3.90
2023-03-04T10:35:55.139Z,3.30
2023-03-04T10:39:27.808Z,2.80
2023-03-04T10:42:57.833Z,2.40
2023-03-04T10:46:25.943Z,1.80
2023-03-04T10:49:58.105Z,1.70
2023-03-04T10:53:40.248Z,1.90
2023-03-04T10:57:15.671Z,1.20
2023-03-04T11:00:42.872Z,1.20
2023-03-04T11:04:19.935Z,1.60
2023-03-04T11:07:56.662Z,1.20
2023-03-04T11:11:34.868Z,1.20
2023-03-04T11:15:01.541Z,1.10
2023-03-04T11:18:45.518Z,0.80
2023-03-04T11:22:19.598Z,1.60
2023-03-04T11:25:50.284Z,1.40
2023-03-04T11:29:21.902Z,1.80
2023-03-04T11:32:51.991Z,1.20
2023-03-04T11:36:35.080Z,0.90
2023-03-04T11:40:11.370Z,0.90
2023-03-04T11:43:44.397Z,1.00
2023-03-04T11:47:24.885Z,1.30
2023-03-04T11:50:56.214Z,1.80
2023-03-04T11:54:34.454Z,1.20
2023-03-04T11:58:15.092Z,1.00
2023-03-04T12:01:52.764Z,0.90
2023-03-04T12:05:39.380Z,0.80
2023-03-04T12:09:23.930Z,1.20
2023-03-04T12:13:19.281Z,1.00
2023-03-04T12:17:17.472Z,1.00
2023-03-04T12:21:17.133Z,0.80
2023-03-04T12:25:11.802Z,0.90
2023-03-04T12:29:00.178Z,1.10
2023-03-04T12:32:41.795Z,1.80
2023-03-04T12:36:21.381Z,2.60
2023-03-04T12:40:08.320Z,1.60
2023-03-04T12:43:50.394Z,1.20
2023-03-04T12:47:30.599Z,0.40
2023-03-04T12:51:11.260Z,0.60
2023-03-04T12:54:42.718Z,0.90
2023-03-04T12:58:19.932Z,1.20
2023-03-04T13:01:57.305Z,0.40
2023-03-04T13:05:57.869Z,3.00
2023-03-04T13:09:31.674Z,0.70
2023-03-04T13:13:01.593Z,0.50
2023-03-04T13:16:36.529Z,0.90
2023-03-04T13:20:20.091Z,0.90
2023-03-04T13:23:50.096Z,1.30
2023-03-04T13:27:50.363Z,0.80
2023-03-04T13:31:29.237Z,0.70
2023-03-04T13:34:58.217Z,0.70
2023-03-04T13:38:35.189Z,0.70
2023-03-04T13:42:02.891Z,0.50
2023-03-04T13:45:39.475Z,0.40
2023-03-04T13:49:09.119Z,0.50
2023-03-04T13:52:44.716Z,0.60
2023-03-04T13:56:32.407Z,0.50
2023-03-04T14:00:00.415Z,0.70
2023-03-04T14:03:32.189Z,0.60
2023-03-04T14:07:01.369Z,0.40
2023-03-04T14:10:28.496Z,0.60
2023-03-04T14:13:57.757Z,0.60
2023-03-04T14:17:28.639Z,0.60
2023-03-04T14:20:59.441Z,0.50
2023-03-04T14:24:27.128Z,0.70
2023-03-04T14:28:06.045Z,0.60
2023-03-04T14:31:39.982Z,0.70
2023-03-04T14:35:25.033Z,0.80
2023-03-04T14:38:59.150Z,0.80
2023-03-04T14:42:31.343Z,0.60
2023-03-04T14:46:03.841Z,0.60
2023-03-04T14:49:32.568Z,1.00
2023-03-04T14:53:18.905Z,0.80
2023-03-04T14:56:51.899Z,1.10
2023-03-04T15:03:54.388Z,0.90
2023-03-04T15:07:23.405Z,1.00
2023-03-04T15:10:59.089Z,1.30
2023-03-04T15:14:47.452Z,1.40
2023-03-04T15:18:26.659Z,0.90
2023-03-04T15:22:03.870Z,1.10
2023-03-04T15:25:31.488Z,1.70
2023-03-04T15:28:58.328Z,1.10
2023-03-04T15:32:25.920Z,0.90
2023-03-04T15:35:57.666Z,1.00
2023-03-04T15:39:26.840Z,1.10
2023-03-04T15:42:53.841Z,1.30
2023-03-04T15:46:21.034Z,0.60
2023-03-04T15:49:47.998Z,0.60
2023-03-04T15:53:19.112Z,0.70
2023-03-04T15:56:46.012Z,0.70
2023-03-04T16:00:15.309Z,0.80
2023-03-04T16:03:42.525Z,0.50
2023-03-04T16:07:09.207Z,0.90
2023-03-04T16:10:36.119Z,0.70
2023-03-04T16:14:02.664Z,0.90
2023-03-04T16:17:29.524Z,0.90
2023-03-04T16:20:56.425Z,0.90
2023-03-04T16:24:23.233Z,0.90
2023-03-04T16:27:50.267Z,0.80
2023-03-04T16:31:18.059Z,1.30
2023-03-04T16:34:45.004Z,1.20
2023-03-04T16:38:26.235Z,1.10
2023-03-04T16:41:53.696Z,1.20
2023-03-04T16:45:23.267Z,1.30
2023-03-04T16:48:50.690Z,1.50
2023-03-04T16:52:26.876Z,1.80
2023-03-04T16:55:53.665Z,1.40
2023-03-04T16:59:20.945Z,1.50
2023-03-04T17:02:51.945Z,1.40
2023-03-04T17:06:19.201Z,1.40
2023-03-04T17:09:46.596Z,1.50
2023-03-04T17:13:14.040Z,1.60
2023-03-04T17:16:40.464Z,1.90
2023-03-04T17:20:08.804Z,1.10
2023-03-04T17:23:36.193Z,1.60
2023-03-04T17:27:03.169Z,1.40
2023-03-04T17:30:29.766Z,1.30
2023-03-04T17:33:56.422Z,1.50
2023-03-04T17:37:23.319Z,1.60
2023-03-04T17:40:50.117Z,1.70
2023-03-04T17:44:17.365Z,2.40
2023-03-04T17:47:43.929Z,1.60
2023-03-04T17:51:13.186Z,1.50
2023-03-04T17:54:40.053Z,2.50
2023-03-04T17:58:07.710Z,1.60
2023-03-04T18:01:34.800Z,1.60
2023-03-04T18:05:06.052Z,1.70
2023-03-04T18:08:32.816Z,1.60
2023-03-04T18:12:02.420Z,2.00
2023-03-04T18:15:30.443Z,2.00
2023-03-04T18:19:01.442Z,2.20
2023-03-04T18:22:28.486Z,2.40
2023-03-04T18:25:55.826Z,2.70
2023-03-04T18:29:22.843Z,3.60
2023-03-04T18:32:52.417Z,3.00
2023-03-04T18:36:21.496Z,2.90
2023-03-04T18:39:50.653Z,3.20
2023-03-04T18:43:17.251Z,3.20
2023-03-04T18:46:47.249Z,3.70
2023-03-04T18:50:17.516Z,3.20
2023-03-04T18:53:45.299Z,3.70
2023-03-04T18:57:14.718Z,3.50
2023-03-04T19:00:51.726Z,3.40
2023-03-04T19:04:20.701Z,3.30
2023-03-04T19:07:49.189Z,2.80
2023-03-04T19:11:17.060Z,4.70
2023-03-04T19:14:45.455Z,7.10
2023-03-04T19:18:13.390Z,7.30
2023-03-04T19:21:42.814Z,8.20
2023-03-04T19:25:12.063Z,9.80
2023-03-04T19:28:39.216Z,12.90
2023-03-04T19:32:06.839Z,13.60
2023-03-04T19:35:35.193Z,13.50
2023-03-04T19:39:02.750Z,14.90
2023-03-04T19:42:30.165Z,12.60
2023-03-04T19:45:58.858Z,14.90
2023-03-04T19:49:27.676Z,14.00
2023-03-04T19:52:54.432Z,15.10
2023-03-04T19:56:22.579Z,16.20
2023-03-04T19:59:50.833Z,17.00
2023-03-04T20:03:18.056Z,17.60
2023-03-04T20:06:48.468Z,19.30
2023-03-04T20:10:19.925Z,21.00
2023-03-04T20:13:47.117Z,19.30
2023-03-04T20:17:15.609Z,25.50
2023-03-04T20:20:42.858Z,24.30
2023-03-04T20:24:15.485Z,24.10
2023-03-04T20:27:46.051Z,22.00
2023-03-04T20:31:18.788Z,20.70
2023-03-04T20:34:47.092Z,15.20
2023-03-04T20:38:16.433Z,15.80
2023-03-04T20:41:48.520Z,12.80
2023-03-04T20:45:16.480Z,13.60
2023-03-04T20:48:44.263Z,16.80
2023-03-04T20:52:11.896Z,12.90
2023-03-04T20:55:39.077Z,14.20
2023-03-04T20:59:11.115Z,12.60
2023-03-04T21:02:38.128Z,11.70
2023-03-04T21:06:09.332Z,10.30
2023-03-04T21:09:35.984Z,10.90
2023-03-04T21:13:03.284Z,11.90
2023-03-04T21:16:32.149Z,11.00
2023-03-04T21:20:00.586Z,13.40
2023-03-04T21:23:27.983Z,15.10
2023-03-04T21:26:58.013Z,14.40
2023-03-04T21:30:24.992Z,12.80
2023-03-04T21:33:53.020Z,12.10
2023-03-04T21:37:20.483Z,16.30
2023-03-04T21:40:49.888Z,20.90
2023-03-04T21:44:28.035Z,22.00
2023-03-04T21:48:02.680Z,22.80
2023-03-04T21:51:30.394Z,20.60
2023-03-04T21:54:58.471Z,20.50
2023-03-04T21:58:49.105Z,20.30
2023-03-04T22:02:20.439Z,19.90
2023-03-04T22:05:52.795Z,19.10
2023-03-04T22:09:19.954Z,15.90
2023-03-04T22:12:47.264Z,14.40
2023-03-04T22:16:14.262Z,15.50
2023-03-04T22:19:42.697Z,15.70
2023-03-04T22:23:09.965Z,19.30
2023-03-04T22:26:44.788Z,23.30
2023-03-04T22:30:16.681Z,17.70
2023-03-04T22:33:45.333Z,15.30
2023-03-04T22:37:12.072Z,22.90
2023-03-04T22:40:39.620Z,23.40
2023-03-04T22:44:08.666Z,20.60
2023-03-04T22:47:35.549Z,21.50
2023-03-04T22:51:08.708Z,20.30
2023-03-04T22:54:35.657Z,17.00
2023-03-04T22:58:05.969Z,14.40
2023-03-04T23:01:35.443Z,14.30
2023-03-04T23:05:04.080Z,13.40
2023-03-04T23:08:32.694Z,15.50
2023-03-04T23:12:05.522Z,15.30
2023-03-04T23:15:35.252Z,14.50
2023-03-04T23:19:06.755Z,14.30
2023-03-04T23:22:34.737Z,14.80
2023-03-04T23:26:02.357Z,14.10
2023-03-04T23:29:33.084Z,17.80
2023-03-04T23:33:03.604Z,13.50
2023-03-04T23:36:34.162Z,13.40
2023-03-04T23:40:03.647Z,12.30
2023-03-04T23:43:36.418Z,13.40
2023-03-04T23:47:04.535Z,15.20
2023-03-04T23:50:32.959Z,15.20
2023-03-04T23:54:03.544Z,14.00
2023-03-04T23:57:31.418Z,14.10
